Terminal Aerodrome Forecast
Issued by NWS

Current Version | Previous Version | Text Only | Print | Product List | Glossary On
Versions: 1 2 3 4 5 6 7 8 9 10 11 12 13 14 15 16 17 18 19 20
000
FTUS44 KMAF 012300
TAFCNM
TAF
KCNM 012326Z 0200/0224 14010KT P6SM BKN200
     FM020600 13006KT P6SM OVC015
     FM020900 10007KT 3SM BR OVC003
     FM021800 12008KT P6SM BKN100=

USA.gov is the U.S. government's official web portal to all federal, state and local government web resources and services.